sensor_id;sensor_type;location;lat;lon;timestamp;P1;durP1;ratioP1;P2;durP2;ratioP2
76589;SDS011;65471;55.908;37.880;2024-03-02T00:00:26;69.28;;;32.33;;
76589;SDS011;65471;55.908;37.880;2024-03-02T00:02:53;90.57;;;35.65;;
76589;SDS011;65471;55.908;37.880;2024-03-02T00:05:21;91.47;;;35.80;;
76589;SDS011;65471;55.908;37.880;2024-03-02T00:07:52;88.93;;;34.20;;
76589;SDS011;65471;55.908;37.880;2024-03-02T00:10:28;90.75;;;34.95;;
76589;SDS011;65471;55.908;37.880;2024-03-02T00:13:07;88.55;;;34.95;;
76589;SDS011;65471;55.908;37.880;2024-03-02T00:18:12;87.03;;;34.78;;
76589;SDS011;65471;55.908;37.880;2024-03-02T00:20:47;90.65;;;35.47;;
76589;SDS011;65471;55.908;37.880;2024-03-02T00:23:15;74.60;;;32.90;;
76589;SDS011;65471;55.908;37.880;2024-03-02T00:25:48;107.65;;;35.53;;
76589;SDS011;65471;55.908;37.880;2024-03-02T00:28:26;90.45;;;33.08;;
76589;SDS011;65471;55.908;37.880;2024-03-02T00:30:59;90.72;;;33.85;;
76589;SDS011;65471;55.908;37.880;2024-03-02T00:33:27;79.78;;;34.35;;
76589;SDS011;65471;55.908;37.880;2024-03-02T00:35:56;87.95;;;34.78;;
76589;SDS011;65471;55.908;37.880;2024-03-02T00:38:24;74.60;;;33.42;;
76589;SDS011;65471;55.908;37.880;2024-03-02T00:40:51;79.38;;;33.08;;
76589;SDS011;65471;55.908;37.880;2024-03-02T00:43:34;89.10;;;34.67;;
76589;SDS011;65471;55.908;37.880;2024-03-02T00:46:15;81.43;;;33.30;;
76589;SDS011;65471;55.908;37.880;2024-03-02T00:48:48;92.75;;;35.83;;
76589;SDS011;65471;55.908;37.880;2024-03-02T00:51:23;85.18;;;35.15;;
76589;SDS011;65471;55.908;37.880;2024-03-02T00:53:52;92.18;;;35.90;;
76589;SDS011;65471;55.908;37.880;2024-03-02T00:56:22;88.35;;;34.70;;
76589;SDS011;65471;55.908;37.880;2024-03-02T00:58:50;95.95;;;37.42;;
76589;SDS011;65471;55.908;37.880;2024-03-02T01:01:19;95.45;;;36.05;;
76589;SDS011;65471;55.908;37.880;2024-03-02T01:03:49;88.90;;;34.35;;
76589;SDS011;65471;55.908;37.880;2024-03-02T01:06:17;86.47;;;35.80;;
76589;SDS011;65471;55.908;37.880;2024-03-02T01:08:45;105.65;;;36.92;;
76589;SDS011;65471;55.908;37.880;2024-03-02T01:11:13;83.70;;;35.60;;
76589;SDS011;65471;55.908;37.880;2024-03-02T01:13:40;83.00;;;33.97;;
76589;SDS011;65471;55.908;37.880;2024-03-02T01:16:07;85.68;;;34.03;;
76589;SDS011;65471;55.908;37.880;2024-03-02T01:18:34;77.05;;;33.55;;
76589;SDS011;65471;55.908;37.880;2024-03-02T01:21:01;85.10;;;34.40;;
76589;SDS011;65471;55.908;37.880;2024-03-02T01:23:28;94.68;;;35.40;;
76589;SDS011;65471;55.908;37.880;2024-03-02T01:25:55;93.70;;;34.58;;
76589;SDS011;65471;55.908;37.880;2024-03-02T01:28:22;89.13;;;34.00;;
76589;SDS011;65471;55.908;37.880;2024-03-02T01:30:49;88.35;;;34.33;;
76589;SDS011;65471;55.908;37.880;2024-03-02T01:33:17;80.32;;;33.15;;
76589;SDS011;65471;55.908;37.880;2024-03-02T01:35:45;86.72;;;34.67;;
76589;SDS011;65471;55.908;37.880;2024-03-02T01:38:12;91.53;;;34.55;;
76589;SDS011;65471;55.908;37.880;2024-03-02T01:40:39;85.90;;;32.25;;
76589;SDS011;65471;55.908;37.880;2024-03-02T01:43:06;83.88;;;32.33;;
76589;SDS011;65471;55.908;37.880;2024-03-02T01:45:34;97.07;;;35.23;;
76589;SDS011;65471;55.908;37.880;2024-03-02T01:50:33;91.00;;;33.42;;
76589;SDS011;65471;55.908;37.880;2024-03-02T01:53:01;86.93;;;33.67;;
76589;SDS011;65471;55.908;37.880;2024-03-02T01:55:31;73.78;;;31.58;;
76589;SDS011;65471;55.908;37.880;2024-03-02T01:57:59;86.75;;;33.20;;
76589;SDS011;65471;55.908;37.880;2024-03-02T02:00:27;98.35;;;34.70;;
76589;SDS011;65471;55.908;37.880;2024-03-02T02:02:54;99.15;;;33.95;;
76589;SDS011;65471;55.908;37.880;2024-03-02T02:05:21;86.30;;;35.08;;
76589;SDS011;65471;55.908;37.880;2024-03-02T02:07:49;81.10;;;34.03;;
76589;SDS011;65471;55.908;37.880;2024-03-02T02:10:16;89.97;;;35.00;;
76589;SDS011;65471;55.908;37.880;2024-03-02T02:12:44;83.10;;;34.20;;
76589;SDS011;65471;55.908;37.880;2024-03-02T02:15:22;83.07;;;33.85;;
76589;SDS011;65471;55.908;37.880;2024-03-02T02:17:50;80.80;;;33.65;;
76589;SDS011;65471;55.908;37.880;2024-03-02T02:20:37;89.07;;;34.90;;
76589;SDS011;65471;55.908;37.880;2024-03-02T02:23:04;85.22;;;33.20;;
76589;SDS011;65471;55.908;37.880;2024-03-02T02:25:32;83.57;;;33.53;;
76589;SDS011;65471;55.908;37.880;2024-03-02T02:27:59;75.57;;;32.65;;
76589;SDS011;65471;55.908;37.880;2024-03-02T02:30:27;86.03;;;34.20;;
76589;SDS011;65471;55.908;37.880;2024-03-02T02:32:56;79.65;;;33.90;;
76589;SDS011;65471;55.908;37.880;2024-03-02T02:35:25;100.32;;;35.40;;
76589;SDS011;65471;55.908;37.880;2024-03-02T02:37:52;80.15;;;32.00;;
76589;SDS011;65471;55.908;37.880;2024-03-02T02:40:22;91.72;;;33.50;;
76589;SDS011;65471;55.908;37.880;2024-03-02T02:42:49;80.25;;;34.10;;
76589;SDS011;65471;55.908;37.880;2024-03-02T02:45:19;92.32;;;35.72;;
76589;SDS011;65471;55.908;37.880;2024-03-02T02:47:46;97.82;;;34.67;;
76589;SDS011;65471;55.908;37.880;2024-03-02T02:50:13;89.57;;;33.83;;
76589;SDS011;65471;55.908;37.880;2024-03-02T02:52:40;84.32;;;34.55;;
76589;SDS011;65471;55.908;37.880;2024-03-02T02:55:12;85.60;;;33.70;;
76589;SDS011;65471;55.908;37.880;2024-03-02T02:57:40;83.07;;;33.67;;
76589;SDS011;65471;55.908;37.880;2024-03-02T03:00:13;89.63;;;31.33;;
76589;SDS011;65471;55.908;37.880;2024-03-02T03:02:47;84.03;;;33.65;;
76589;SDS011;65471;55.908;37.880;2024-03-02T03:05:16;84.30;;;33.78;;
76589;SDS011;65471;55.908;37.880;2024-03-02T03:07:44;79.03;;;33.30;;
76589;SDS011;65471;55.908;37.880;2024-03-02T03:10:12;92.45;;;33.15;;
76589;SDS011;65471;55.908;37.880;2024-03-02T03:12:41;91.20;;;34.00;;
76589;SDS011;65471;55.908;37.880;2024-03-02T03:15:10;75.32;;;33.30;;
76589;SDS011;65471;55.908;37.880;2024-03-02T03:17:38;83.45;;;34.10;;
76589;SDS011;65471;55.908;37.880;2024-03-02T03:20:05;88.30;;;34.63;;
76589;SDS011;65471;55.908;37.880;2024-03-02T03:22:39;95.07;;;34.35;;
76589;SDS011;65471;55.908;37.880;2024-03-02T03:25:07;83.95;;;35.03;;
76589;SDS011;65471;55.908;37.880;2024-03-02T03:27:37;79.03;;;32.88;;
76589;SDS011;65471;55.908;37.880;2024-03-02T03:30:04;81.28;;;33.75;;
76589;SDS011;65471;55.908;37.880;2024-03-02T03:35:00;79.32;;;33.50;;
76589;SDS011;65471;55.908;37.880;2024-03-02T03:37:28;98.60;;;34.80;;
76589;SDS011;65471;55.908;37.880;2024-03-02T03:40:00;79.65;;;33.72;;
76589;SDS011;65471;55.908;37.880;2024-03-02T03:42:37;75.63;;;34.00;;
76589;SDS011;65471;55.908;37.880;2024-03-02T03:45:05;79.97;;;34.15;;
76589;SDS011;65471;55.908;37.880;2024-03-02T03:47:33;84.78;;;34.63;;
76589;SDS011;65471;55.908;37.880;2024-03-02T03:50:00;80.93;;;33.58;;
76589;SDS011;65471;55.908;37.880;2024-03-02T03:52:29;73.50;;;32.55;;
76589;SDS011;65471;55.908;37.880;2024-03-02T03:54:56;83.53;;;34.28;;
76589;SDS011;65471;55.908;37.880;2024-03-02T03:57:23;97.10;;;35.38;;
76589;SDS011;65471;55.908;37.880;2024-03-02T03:59:50;92.80;;;33.42;;
76589;SDS011;65471;55.908;37.880;2024-03-02T04:02:17;68.68;;;30.65;;
76589;SDS011;65471;55.908;37.880;2024-03-02T04:04:44;80.18;;;33.42;;
76589;SDS011;65471;55.908;37.880;2024-03-02T04:07:12;72.82;;;33.78;;
76589;SDS011;65471;55.908;37.880;2024-03-02T04:09:39;77.50;;;32.35;;
76589;SDS011;65471;55.908;37.880;2024-03-02T04:12:06;77.53;;;33.42;;
76589;SDS011;65471;55.908;37.880;2024-03-02T04:14:33;81.47;;;34.00;;
76589;SDS011;65471;55.908;37.880;2024-03-02T04:17:00;92.72;;;35.08;;
76589;SDS011;65471;55.908;37.880;2024-03-02T04:19:27;88.47;;;35.08;;
76589;SDS011;65471;55.908;37.880;2024-03-02T04:21:54;80.38;;;33.45;;
76589;SDS011;65471;55.908;37.880;2024-03-02T04:24:21;78.97;;;33.53;;
76589;SDS011;65471;55.908;37.880;2024-03-02T04:26:48;84.13;;;33.60;;
76589;SDS011;65471;55.908;37.880;2024-03-02T04:29:15;85.57;;;34.35;;
76589;SDS011;65471;55.908;37.880;2024-03-02T04:31:42;80.13;;;34.78;;
76589;SDS011;65471;55.908;37.880;2024-03-02T04:34:09;83.25;;;34.58;;
76589;SDS011;65471;55.908;37.880;2024-03-02T04:36:37;83.53;;;33.55;;
76589;SDS011;65471;55.908;37.880;2024-03-02T04:39:04;76.55;;;34.20;;
76589;SDS011;65471;55.908;37.880;2024-03-02T04:41:31;82.25;;;35.53;;
76589;SDS011;65471;55.908;37.880;2024-03-02T04:43:58;83.20;;;34.47;;
76589;SDS011;65471;55.908;37.880;2024-03-02T04:46:25;75.95;;;34.65;;
76589;SDS011;65471;55.908;37.880;2024-03-02T04:48:51;84.65;;;35.22;;
76589;SDS011;65471;55.908;37.880;2024-03-02T04:51:22;75.75;;;34.53;;
76589;SDS011;65471;55.908;37.880;2024-03-02T04:53:49;79.85;;;35.42;;
76589;SDS011;65471;55.908;37.880;2024-03-02T04:56:16;89.22;;;36.28;;
76589;SDS011;65471;55.908;37.880;2024-03-02T04:58:49;83.57;;;34.75;;
76589;SDS011;65471;55.908;37.880;2024-03-02T05:01:16;87.07;;;35.78;;
76589;SDS011;65471;55.908;37.880;2024-03-02T05:03:44;81.57;;;35.33;;
76589;SDS011;65471;55.908;37.880;2024-03-02T05:06:11;79.90;;;34.80;;
76589;SDS011;65471;55.908;37.880;2024-03-02T05:08:38;84.97;;;35.08;;
76589;SDS011;65471;55.908;37.880;2024-03-02T05:11:05;88.65;;;34.13;;
76589;SDS011;65471;55.908;37.880;2024-03-02T05:13:51;83.43;;;35.35;;
76589;SDS011;65471;55.908;37.880;2024-03-02T05:16:18;80.55;;;34.40;;
76589;SDS011;65471;55.908;37.880;2024-03-02T05:18:45;73.53;;;33.95;;
76589;SDS011;65471;55.908;37.880;2024-03-02T05:21:12;79.65;;;33.70;;
76589;SDS011;65471;55.908;37.880;2024-03-02T05:23:39;89.95;;;35.53;;
76589;SDS011;65471;55.908;37.880;2024-03-02T05:26:06;82.50;;;35.10;;
76589;SDS011;65471;55.908;37.880;2024-03-02T05:28:33;76.60;;;35.80;;
76589;SDS011;65471;55.908;37.880;2024-03-02T05:31:00;78.55;;;35.53;;
76589;SDS011;65471;55.908;37.880;2024-03-02T05:33:27;84.60;;;36.28;;
76589;SDS011;65471;55.908;37.880;2024-03-02T05:35:55;83.25;;;33.28;;
76589;SDS011;65471;55.908;37.880;2024-03-02T05:38:22;78.53;;;31.92;;
76589;SDS011;65471;55.908;37.880;2024-03-02T05:40:49;79.93;;;33.95;;
76589;SDS011;65471;55.908;37.880;2024-03-02T05:43:16;77.00;;;33.75;;
76589;SDS011;65471;55.908;37.880;2024-03-02T05:45:43;86.60;;;34.25;;
76589;SDS011;65471;55.908;37.880;2024-03-02T05:48:10;78.55;;;32.75;;
76589;SDS011;65471;55.908;37.880;2024-03-02T05:50:38;78.47;;;33.60;;
76589;SDS011;65471;55.908;37.880;2024-03-02T05:53:04;79.03;;;32.75;;
76589;SDS011;65471;55.908;37.880;2024-03-02T05:55:31;76.22;;;33.03;;
76589;SDS011;65471;55.908;37.880;2024-03-02T05:57:58;92.40;;;33.85;;
76589;SDS011;65471;55.908;37.880;2024-03-02T06:00:46;80.00;;;33.22;;
76589;SDS011;65471;55.908;37.880;2024-03-02T06:03:13;78.45;;;31.13;;
76589;SDS011;65471;55.908;37.880;2024-03-02T06:05:40;87.50;;;33.78;;
76589;SDS011;65471;55.908;37.880;2024-03-02T06:08:07;73.28;;;31.80;;
76589;SDS011;65471;55.908;37.880;2024-03-02T06:10:34;72.75;;;30.48;;
76589;SDS011;65471;55.908;37.880;2024-03-02T06:13:01;77.63;;;31.42;;
76589;SDS011;65471;55.908;37.880;2024-03-02T06:15:28;80.80;;;32.92;;
76589;SDS011;65471;55.908;37.880;2024-03-02T06:17:55;74.28;;;31.83;;
76589;SDS011;65471;55.908;37.880;2024-03-02T06:20:22;70.63;;;31.00;;
76589;SDS011;65471;55.908;37.880;2024-03-02T06:22:49;79.57;;;31.35;;
76589;SDS011;65471;55.908;37.880;2024-03-02T06:25:16;80.07;;;31.20;;
76589;SDS011;65471;55.908;37.880;2024-03-02T06:27:43;71.50;;;31.55;;
76589;SDS011;65471;55.908;37.880;2024-03-02T06:30:10;83.32;;;31.60;;
76589;SDS011;65471;55.908;37.880;2024-03-02T06:32:38;73.75;;;31.15;;
76589;SDS011;65471;55.908;37.880;2024-03-02T06:35:05;72.65;;;32.08;;
76589;SDS011;65471;55.908;37.880;2024-03-02T06:37:35;90.10;;;32.15;;
76589;SDS011;65471;55.908;37.880;2024-03-02T06:40:03;66.60;;;32.13;;
76589;SDS011;65471;55.908;37.880;2024-03-02T06:42:30;83.65;;;34.88;;
76589;SDS011;65471;55.908;37.880;2024-03-02T06:45:01;82.65;;;34.45;;
76589;SDS011;65471;55.908;37.880;2024-03-02T06:47:31;71.90;;;33.03;;
76589;SDS011;65471;55.908;37.880;2024-03-02T06:49:58;73.65;;;33.58;;
76589;SDS011;65471;55.908;37.880;2024-03-02T06:52:25;77.70;;;35.33;;
76589;SDS011;65471;55.908;37.880;2024-03-02T06:54:52;73.53;;;33.08;;
76589;SDS011;65471;55.908;37.880;2024-03-02T06:57:19;75.80;;;31.52;;
76589;SDS011;65471;55.908;37.880;2024-03-02T06:59:47;69.40;;;33.45;;
76589;SDS011;65471;55.908;37.880;2024-03-02T07:02:16;75.05;;;32.53;;
76589;SDS011;65471;55.908;37.880;2024-03-02T07:04:43;73.65;;;33.38;;
76589;SDS011;65471;55.908;37.880;2024-03-02T07:07:12;65.87;;;30.83;;
76589;SDS011;65471;55.908;37.880;2024-03-02T07:09:39;71.97;;;32.08;;
76589;SDS011;65471;55.908;37.880;2024-03-02T07:12:06;66.13;;;31.38;;
76589;SDS011;65471;55.908;37.880;2024-03-02T07:14:34;66.78;;;31.23;;
76589;SDS011;65471;55.908;37.880;2024-03-02T07:17:20;67.13;;;30.80;;
76589;SDS011;65471;55.908;37.880;2024-03-02T07:19:47;64.25;;;29.23;;
76589;SDS011;65471;55.908;37.880;2024-03-02T07:22:14;75.32;;;30.35;;
76589;SDS011;65471;55.908;37.880;2024-03-02T07:24:41;66.53;;;28.98;;
76589;SDS011;65471;55.908;37.880;2024-03-02T07:27:09;65.20;;;28.75;;
76589;SDS011;65471;55.908;37.880;2024-03-02T07:29:37;72.20;;;29.58;;
76589;SDS011;65471;55.908;37.880;2024-03-02T07:32:04;64.70;;;28.25;;
76589;SDS011;65471;55.908;37.880;2024-03-02T07:34:32;72.40;;;30.55;;
76589;SDS011;65471;55.908;37.880;2024-03-02T07:36:59;89.50;;;30.55;;
76589;SDS011;65471;55.908;37.880;2024-03-02T07:39:27;58.45;;;27.67;;
76589;SDS011;65471;55.908;37.880;2024-03-02T07:41:54;71.95;;;29.33;;
76589;SDS011;65471;55.908;37.880;2024-03-02T07:44:21;76.57;;;28.92;;
76589;SDS011;65471;55.908;37.880;2024-03-02T07:46:48;64.38;;;29.00;;
76589;SDS011;65471;55.908;37.880;2024-03-02T07:49:18;61.50;;;29.08;;
76589;SDS011;65471;55.908;37.880;2024-03-02T07:51:46;61.08;;;28.90;;
76589;SDS011;65471;55.908;37.880;2024-03-02T07:54:13;78.35;;;30.35;;
76589;SDS011;65471;55.908;37.880;2024-03-02T07:56:40;79.60;;;30.10;;
76589;SDS011;65471;55.908;37.880;2024-03-02T07:59:07;73.47;;;30.73;;
76589;SDS011;65471;55.908;37.880;2024-03-02T08:01:35;69.63;;;29.98;;
76589;SDS011;65471;55.908;37.880;2024-03-02T08:04:02;67.35;;;29.42;;
76589;SDS011;65471;55.908;37.880;2024-03-02T08:06:30;65.37;;;29.73;;
76589;SDS011;65471;55.908;37.880;2024-03-02T08:08:58;64.88;;;29.13;;
76589;SDS011;65471;55.908;37.880;2024-03-02T08:11:27;66.35;;;29.50;;
76589;SDS011;65471;55.908;37.880;2024-03-02T08:13:54;65.78;;;27.92;;
76589;SDS011;65471;55.908;37.880;2024-03-02T08:16:24;75.07;;;30.67;;
76589;SDS011;65471;55.908;37.880;2024-03-02T08:18:52;68.80;;;30.52;;
76589;SDS011;65471;55.908;37.880;2024-03-02T08:21:19;63.75;;;29.40;;
76589;SDS011;65471;55.908;37.880;2024-03-02T08:23:47;69.38;;;29.08;;
76589;SDS011;65471;55.908;37.880;2024-03-02T08:26:14;68.65;;;30.42;;
76589;SDS011;65471;55.908;37.880;2024-03-02T08:28:41;74.07;;;30.63;;
76589;SDS011;65471;55.908;37.880;2024-03-02T08:31:09;70.75;;;30.98;;
76589;SDS011;65471;55.908;37.880;2024-03-02T08:33:36;64.75;;;28.92;;
76589;SDS011;65471;55.908;37.880;2024-03-02T08:36:04;64.35;;;30.48;;
76589;SDS011;65471;55.908;37.880;2024-03-02T08:38:32;75.00;;;31.45;;
76589;SDS011;65471;55.908;37.880;2024-03-02T08:40:59;61.17;;;29.88;;
76589;SDS011;65471;55.908;37.880;2024-03-02T08:43:26;132.02;;;61.10;;
76589;SDS011;65471;55.908;37.880;2024-03-02T08:45:53;76.68;;;32.72;;
76589;SDS011;65471;55.908;37.880;2024-03-02T08:48:21;71.85;;;30.58;;
76589;SDS011;65471;55.908;37.880;2024-03-02T08:50:48;75.53;;;29.83;;
76589;SDS011;65471;55.908;37.880;2024-03-02T08:53:15;72.63;;;32.95;;
76589;SDS011;65471;55.908;37.880;2024-03-02T08:55:45;70.63;;;30.20;;
76589;SDS011;65471;55.908;37.880;2024-03-02T08:58:13;68.88;;;29.52;;
76589;SDS011;65471;55.908;37.880;2024-03-02T09:00:40;70.40;;;29.88;;
76589;SDS011;65471;55.908;37.880;2024-03-02T09:03:08;68.90;;;29.17;;
76589;SDS011;65471;55.908;37.880;2024-03-02T09:05:35;71.35;;;32.90;;
76589;SDS011;65471;55.908;37.880;2024-03-02T09:08:03;77.75;;;30.05;;
76589;SDS011;65471;55.908;37.880;2024-03-02T09:10:30;72.43;;;29.90;;
76589;SDS011;65471;55.908;37.880;2024-03-02T09:12:57;69.70;;;31.02;;
76589;SDS011;65471;55.908;37.880;2024-03-02T09:15:25;60.50;;;27.75;;
76589;SDS011;65471;55.908;37.880;2024-03-02T09:17:52;73.28;;;29.63;;
76589;SDS011;65471;55.908;37.880;2024-03-02T09:20:19;58.10;;;27.80;;
76589;SDS011;65471;55.908;37.880;2024-03-02T09:22:46;71.15;;;30.20;;
76589;SDS011;65471;55.908;37.880;2024-03-02T09:25:15;63.45;;;31.20;;
76589;SDS011;65471;55.908;37.880;2024-03-02T09:27:43;65.67;;;30.47;;
76589;SDS011;65471;55.908;37.880;2024-03-02T09:30:10;66.75;;;30.40;;
76589;SDS011;65471;55.908;37.880;2024-03-02T09:32:38;67.70;;;29.48;;
76589;SDS011;65471;55.908;37.880;2024-03-02T09:35:05;70.47;;;29.83;;
76589;SDS011;65471;55.908;37.880;2024-03-02T09:37:32;63.08;;;28.83;;
76589;SDS011;65471;55.908;37.880;2024-03-02T09:39:59;58.90;;;26.25;;
76589;SDS011;65471;55.908;37.880;2024-03-02T09:42:27;73.77;;;30.43;;
76589;SDS011;65471;55.908;37.880;2024-03-02T09:44:55;61.55;;;27.92;;
76589;SDS011;65471;55.908;37.880;2024-03-02T09:47:23;56.23;;;25.83;;
76589;SDS011;65471;55.908;37.880;2024-03-02T09:49:50;66.10;;;27.98;;
76589;SDS011;65471;55.908;37.880;2024-03-02T09:52:17;63.15;;;27.30;;
76589;SDS011;65471;55.908;37.880;2024-03-02T09:54:44;66.05;;;28.38;;
76589;SDS011;65471;55.908;37.880;2024-03-02T09:57:14;65.25;;;28.25;;
76589;SDS011;65471;55.908;37.880;2024-03-02T09:59:42;57.95;;;27.20;;
76589;SDS011;65471;55.908;37.880;2024-03-02T10:02:09;63.25;;;28.00;;
76589;SDS011;65471;55.908;37.880;2024-03-02T10:04:36;54.97;;;27.23;;
76589;SDS011;65471;55.908;37.880;2024-03-02T10:07:13;62.03;;;29.92;;
76589;SDS011;65471;55.908;37.880;2024-03-02T10:09:41;63.00;;;28.87;;
76589;SDS011;65471;55.908;37.880;2024-03-02T10:12:10;65.70;;;28.33;;
76589;SDS011;65471;55.908;37.880;2024-03-02T10:14:39;69.00;;;26.85;;
76589;SDS011;65471;55.908;37.880;2024-03-02T10:17:08;65.88;;;26.65;;
76589;SDS011;65471;55.908;37.880;2024-03-02T10:19:36;49.35;;;25.48;;
76589;SDS011;65471;55.908;37.880;2024-03-02T10:22:07;63.50;;;31.37;;
76589;SDS011;65471;55.908;37.880;2024-03-02T10:27:10;46.65;;;24.33;;
76589;SDS011;65471;55.908;37.880;2024-03-02T10:29:45;61.15;;;25.10;;
76589;SDS011;65471;55.908;37.880;2024-03-02T10:32:13;59.97;;;27.67;;
76589;SDS011;65471;55.908;37.880;2024-03-02T10:34:40;56.10;;;25.23;;
76589;SDS011;65471;55.908;37.880;2024-03-02T10:37:08;59.53;;;27.67;;
76589;SDS011;65471;55.908;37.880;2024-03-02T10:39:37;61.40;;;26.98;;
76589;SDS011;65471;55.908;37.880;2024-03-02T10:42:08;63.33;;;26.42;;
76589;SDS011;65471;55.908;37.880;2024-03-02T10:44:36;60.00;;;27.13;;
76589;SDS011;65471;55.908;37.880;2024-03-02T10:47:04;64.50;;;26.30;;
76589;SDS011;65471;55.908;37.880;2024-03-02T10:49:32;67.50;;;26.05;;
76589;SDS011;65471;55.908;37.880;2024-03-02T10:52:00;61.42;;;25.65;;
76589;SDS011;65471;55.908;37.880;2024-03-02T10:54:27;49.20;;;23.65;;
76589;SDS011;65471;55.908;37.880;2024-03-02T10:57:03;46.00;;;23.85;;
76589;SDS011;65471;55.908;37.880;2024-03-02T10:59:35;52.28;;;23.63;;
76589;SDS011;65471;55.908;37.880;2024-03-02T11:02:05;46.35;;;24.67;;
76589;SDS011;65471;55.908;37.880;2024-03-02T11:04:35;53.83;;;24.80;;
76589;SDS011;65471;55.908;37.880;2024-03-02T11:07:07;55.28;;;24.80;;
76589;SDS011;65471;55.908;37.880;2024-03-02T11:09:41;49.80;;;23.70;;
76589;SDS011;65471;55.908;37.880;2024-03-02T11:14:44;45.13;;;23.95;;
76589;SDS011;65471;55.908;37.880;2024-03-02T11:17:13;47.80;;;23.85;;
76589;SDS011;65471;55.908;37.880;2024-03-02T11:19:45;55.45;;;24.90;;
76589;SDS011;65471;55.908;37.880;2024-03-02T11:22:14;51.63;;;21.83;;
76589;SDS011;65471;55.908;37.880;2024-03-02T11:24:48;43.38;;;21.85;;
76589;SDS011;65471;55.908;37.880;2024-03-02T11:27:59;57.22;;;24.23;;
76589;SDS011;65471;55.908;37.880;2024-03-02T11:35:37;44.47;;;22.25;;
76589;SDS011;65471;55.908;37.880;2024-03-02T11:38:09;45.95;;;22.00;;
76589;SDS011;65471;55.908;37.880;2024-03-02T11:40:36;44.28;;;22.52;;
76589;SDS011;65471;55.908;37.880;2024-03-02T11:43:07;45.92;;;22.33;;
76589;SDS011;65471;55.908;37.880;2024-03-02T11:45:38;56.47;;;24.55;;
76589;SDS011;65471;55.908;37.880;2024-03-02T11:48:12;51.70;;;23.90;;
76589;SDS011;65471;55.908;37.880;2024-03-02T11:50:42;63.30;;;25.95;;
76589;SDS011;65471;55.908;37.880;2024-03-02T11:53:13;49.08;;;26.27;;
76589;SDS011;65471;55.908;37.880;2024-03-02T11:55:41;50.90;;;24.85;;
76589;SDS011;65471;55.908;37.880;2024-03-02T11:58:14;57.22;;;27.88;;
76589;SDS011;65471;55.908;37.880;2024-03-02T12:00:47;54.67;;;26.92;;
76589;SDS011;65471;55.908;37.880;2024-03-02T12:03:18;59.08;;;26.95;;
76589;SDS011;65471;55.908;37.880;2024-03-02T12:05:48;60.53;;;26.40;;
76589;SDS011;65471;55.908;37.880;2024-03-02T12:10:43;47.65;;;25.20;;
76589;SDS011;65471;55.908;37.880;2024-03-02T12:13:23;62.95;;;28.30;;
76589;SDS011;65471;55.908;37.880;2024-03-02T12:15:53;59.75;;;27.67;;
76589;SDS011;65471;55.908;37.880;2024-03-02T12:18:24;65.43;;;27.88;;
76589;SDS011;65471;55.908;37.880;2024-03-02T12:20:52;61.10;;;27.10;;
76589;SDS011;65471;55.908;37.880;2024-03-02T12:23:24;52.35;;;26.52;;
76589;SDS011;65471;55.908;37.880;2024-03-02T12:25:51;56.20;;;24.95;;
76589;SDS011;65471;55.908;37.880;2024-03-02T12:28:19;58.80;;;26.45;;
76589;SDS011;65471;55.908;37.880;2024-03-02T12:30:46;50.42;;;25.92;;
76589;SDS011;65471;55.908;37.880;2024-03-02T12:33:14;49.83;;;24.47;;
76589;SDS011;65471;55.908;37.880;2024-03-02T12:35:41;56.15;;;25.17;;
76589;SDS011;65471;55.908;37.880;2024-03-02T12:38:09;57.42;;;25.85;;
76589;SDS011;65471;55.908;37.880;2024-03-02T12:40:37;57.47;;;25.08;;
76589;SDS011;65471;55.908;37.880;2024-03-02T12:43:05;50.05;;;24.63;;
76589;SDS011;65471;55.908;37.880;2024-03-02T12:45:33;48.63;;;25.00;;
76589;SDS011;65471;55.908;37.880;2024-03-02T12:48:01;50.28;;;24.48;;
76589;SDS011;65471;55.908;37.880;2024-03-02T12:50:30;49.25;;;23.98;;
76589;SDS011;65471;55.908;37.880;2024-03-02T12:52:58;53.80;;;24.95;;
76589;SDS011;65471;55.908;37.880;2024-03-02T12:55:25;48.03;;;23.08;;
76589;SDS011;65471;55.908;37.880;2024-03-02T12:57:52;45.85;;;23.92;;
76589;SDS011;65471;55.908;37.880;2024-03-02T13:00:20;39.92;;;22.13;;
76589;SDS011;65471;55.908;37.880;2024-03-02T13:02:49;41.08;;;22.73;;
76589;SDS011;65471;55.908;37.880;2024-03-02T13:05:18;52.30;;;22.60;;
76589;SDS011;65471;55.908;37.880;2024-03-02T13:07:47;45.22;;;22.90;;
76589;SDS011;65471;55.908;37.880;2024-03-02T13:10:15;48.88;;;22.92;;
76589;SDS011;65471;55.908;37.880;2024-03-02T13:12:43;46.47;;;20.70;;
76589;SDS011;65471;55.908;37.880;2024-03-02T13:15:10;40.70;;;21.10;;
76589;SDS011;65471;55.908;37.880;2024-03-02T13:17:44;40.42;;;20.92;;
76589;SDS011;65471;55.908;37.880;2024-03-02T13:20:13;33.25;;;19.30;;
76589;SDS011;65471;55.908;37.880;2024-03-02T13:22:41;32.60;;;18.55;;
76589;SDS011;65471;55.908;37.880;2024-03-02T13:25:09;30.95;;;17.80;;
76589;SDS011;65471;55.908;37.880;2024-03-02T13:27:38;36.25;;;19.00;;
76589;SDS011;65471;55.908;37.880;2024-03-02T13:30:06;38.15;;;18.88;;
76589;SDS011;65471;55.908;37.880;2024-03-02T13:32:36;36.97;;;20.13;;
76589;SDS011;65471;55.908;37.880;2024-03-02T13:35:03;35.45;;;19.05;;
76589;SDS011;65471;55.908;37.880;2024-03-02T13:37:31;36.42;;;18.95;;
76589;SDS011;65471;55.908;37.880;2024-03-02T13:39:59;39.55;;;18.50;;
76589;SDS011;65471;55.908;37.880;2024-03-02T13:42:26;30.35;;;16.40;;
76589;SDS011;65471;55.908;37.880;2024-03-02T13:44:54;31.10;;;16.55;;
76589;SDS011;65471;55.908;37.880;2024-03-02T13:47:21;34.75;;;18.60;;
76589;SDS011;65471;55.908;37.880;2024-03-02T13:49:48;32.50;;;17.70;;
76589;SDS011;65471;55.908;37.880;2024-03-02T13:52:15;36.30;;;19.65;;
76589;SDS011;65471;55.908;37.880;2024-03-02T13:54:47;33.08;;;16.67;;
76589;SDS011;65471;55.908;37.880;2024-03-02T13:57:15;32.17;;;17.40;;
76589;SDS011;65471;55.908;37.880;2024-03-02T14:02:12;31.90;;;16.73;;
76589;SDS011;65471;55.908;37.880;2024-03-02T14:04:39;39.35;;;18.33;;
76589;SDS011;65471;55.908;37.880;2024-03-02T14:07:06;43.55;;;18.23;;
76589;SDS011;65471;55.908;37.880;2024-03-02T14:09:34;40.67;;;18.10;;
76589;SDS011;65471;55.908;37.880;2024-03-02T14:12:02;36.58;;;18.58;;
76589;SDS011;65471;55.908;37.880;2024-03-02T14:14:30;42.58;;;19.33;;
76589;SDS011;65471;55.908;37.880;2024-03-02T14:16:57;37.72;;;18.67;;
76589;SDS011;65471;55.908;37.880;2024-03-02T14:19:30;29.90;;;17.75;;
76589;SDS011;65471;55.908;37.880;2024-03-02T14:21:58;32.75;;;18.75;;
76589;SDS011;65471;55.908;37.880;2024-03-02T14:24:26;43.35;;;20.67;;
76589;SDS011;65471;55.908;37.880;2024-03-02T14:26:56;36.45;;;19.77;;
76589;SDS011;65471;55.908;37.880;2024-03-02T14:29:45;36.70;;;19.02;;
76589;SDS011;65471;55.908;37.880;2024-03-02T14:32:12;39.75;;;18.70;;
76589;SDS011;65471;55.908;37.880;2024-03-02T14:34:39;33.53;;;18.17;;
76589;SDS011;65471;55.908;37.880;2024-03-02T14:37:06;39.63;;;19.75;;
76589;SDS011;65471;55.908;37.880;2024-03-02T14:39:34;39.45;;;19.00;;